Terminal Aerodrome Forecast
Issued by NWS

Home | Current Version | Previous Version | Text Only | Print | Product List | Glossary On
Versions: 1 2 3 4 5 6 7 8 9 10 11 12 13 14 15 16 17 18 19
000
FTUS43 KGRB 221720
TAFRHI
TAF
KRHI 221720Z 2218/2318 26007KT P6SM VCSH OVC070
     FM222000 24006KT P6SM SCT070 BKN110
     FM222200 23005KT P6SM SCT100 BKN200
     FM230100 22003KT P6SM SKC
     FM230800 20005KT P6SM SCT250
      TEMPO 2308/2311 4SM BR
     FM231100 18005KT P6SM BKN100 BKN250
     FM231500 21009KT P6SM OVC090=

USA.gov is the U.S. government's official web portal to all federal, state and local government web resources and services.